sensor_id;sensor_type;location;lat;lon;timestamp;P1;durP1;ratioP1;P2;durP2;ratioP2
11066;SDS011;29763;50.904;5.530;2023-09-07T00:00:55;14.38;;;6.50;;
11066;SDS011;29763;50.904;5.530;2023-09-07T00:03:25;6.68;;;6.07;;
11066;SDS011;29763;50.904;5.530;2023-09-07T00:05:50;6.78;;;6.18;;
11066;SDS011;29763;50.904;5.530;2023-09-07T00:08:18;6.65;;;5.95;;
11066;SDS011;29763;50.904;5.530;2023-09-07T00:10:45;7.55;;;6.30;;
11066;SDS011;29763;50.904;5.530;2023-09-07T00:13:11;8.93;;;6.80;;
11066;SDS011;29763;50.904;5.530;2023-09-07T00:15:37;6.68;;;6.00;;
11066;SDS011;29763;50.904;5.530;2023-09-07T00:18:04;7.05;;;6.32;;
11066;SDS011;29763;50.904;5.530;2023-09-07T00:20:41;7.25;;;6.43;;
11066;SDS011;29763;50.904;5.530;2023-09-07T00:23:10;10.57;;;6.60;;
11066;SDS011;29763;50.904;5.530;2023-09-07T00:25:36;8.52;;;6.43;;
11066;SDS011;29763;50.904;5.530;2023-09-07T00:28:02;6.90;;;5.95;;
11066;SDS011;29763;50.904;5.530;2023-09-07T00:30:28;6.80;;;6.10;;
11066;SDS011;29763;50.904;5.530;2023-09-07T00:32:55;7.03;;;6.35;;
11066;SDS011;29763;50.904;5.530;2023-09-07T00:35:21;6.88;;;6.28;;
11066;SDS011;29763;50.904;5.530;2023-09-07T00:37:47;7.88;;;6.55;;
11066;SDS011;29763;50.904;5.530;2023-09-07T00:40:20;7.38;;;6.68;;
11066;SDS011;29763;50.904;5.530;2023-09-07T00:42:45;8.90;;;6.43;;
11066;SDS011;29763;50.904;5.530;2023-09-07T00:45:13;7.30;;;6.70;;
11066;SDS011;29763;50.904;5.530;2023-09-07T00:47:44;7.45;;;6.47;;
11066;SDS011;29763;50.904;5.530;2023-09-07T00:50:12;7.25;;;6.30;;
11066;SDS011;29763;50.904;5.530;2023-09-07T00:52:42;7.78;;;6.28;;
11066;SDS011;29763;50.904;5.530;2023-09-07T00:55:09;8.20;;;6.63;;
11066;SDS011;29763;50.904;5.530;2023-09-07T00:57:36;7.93;;;6.20;;
11066;SDS011;29763;50.904;5.530;2023-09-07T01:00:07;7.10;;;6.18;;
11066;SDS011;29763;50.904;5.530;2023-09-07T01:02:34;6.80;;;6.05;;
11066;SDS011;29763;50.904;5.530;2023-09-07T01:05:01;8.80;;;6.40;;
11066;SDS011;29763;50.904;5.530;2023-09-07T01:07:34;6.95;;;6.25;;
11066;SDS011;29763;50.904;5.530;2023-09-07T01:10:12;7.25;;;6.50;;
11066;SDS011;29763;50.904;5.530;2023-09-07T01:12:39;7.68;;;5.97;;
11066;SDS011;29763;50.904;5.530;2023-09-07T01:15:07;8.00;;;6.22;;
11066;SDS011;29763;50.904;5.530;2023-09-07T01:17:36;7.00;;;6.20;;
11066;SDS011;29763;50.904;5.530;2023-09-07T01:20:06;7.35;;;5.95;;
11066;SDS011;29763;50.904;5.530;2023-09-07T01:22:38;7.10;;;6.30;;
11066;SDS011;29763;50.904;5.530;2023-09-07T01:25:05;7.20;;;6.28;;
11066;SDS011;29763;50.904;5.530;2023-09-07T01:27:32;6.63;;;6.03;;
11066;SDS011;29763;50.904;5.530;2023-09-07T01:30:00;7.47;;;6.45;;
11066;SDS011;29763;50.904;5.530;2023-09-07T01:32:28;7.60;;;6.20;;
11066;SDS011;29763;50.904;5.530;2023-09-07T01:34:55;7.53;;;6.18;;
11066;SDS011;29763;50.904;5.530;2023-09-07T01:37:22;7.28;;;6.10;;
11066;SDS011;29763;50.904;5.530;2023-09-07T01:39:48;7.05;;;6.35;;
11066;SDS011;29763;50.904;5.530;2023-09-07T01:42:15;7.07;;;6.38;;
11066;SDS011;29763;50.904;5.530;2023-09-07T01:44:41;7.20;;;6.50;;
11066;SDS011;29763;50.904;5.530;2023-09-07T01:47:08;7.25;;;6.53;;
11066;SDS011;29763;50.904;5.530;2023-09-07T01:49:34;6.82;;;6.10;;
11066;SDS011;29763;50.904;5.530;2023-09-07T01:52:00;6.53;;;5.93;;
11066;SDS011;29763;50.904;5.530;2023-09-07T01:54:27;7.43;;;6.60;;
11066;SDS011;29763;50.904;5.530;2023-09-07T01:57:00;6.50;;;5.90;;
11066;SDS011;29763;50.904;5.530;2023-09-07T01:59:27;6.65;;;5.82;;
11066;SDS011;29763;50.904;5.530;2023-09-07T02:01:53;7.43;;;6.55;;
11066;SDS011;29763;50.904;5.530;2023-09-07T02:04:18;7.25;;;6.55;;
11066;SDS011;29763;50.904;5.530;2023-09-07T02:06:44;7.85;;;6.90;;
11066;SDS011;29763;50.904;5.530;2023-09-07T02:09:11;8.95;;;6.55;;
11066;SDS011;29763;50.904;5.530;2023-09-07T02:11:38;8.27;;;6.78;;
11066;SDS011;29763;50.904;5.530;2023-09-07T02:14:05;6.93;;;6.20;;
11066;SDS011;29763;50.904;5.530;2023-09-07T02:16:31;7.07;;;6.47;;
11066;SDS011;29763;50.904;5.530;2023-09-07T02:19:03;7.78;;;6.07;;
11066;SDS011;29763;50.904;5.530;2023-09-07T02:21:30;6.15;;;5.65;;
11066;SDS011;29763;50.904;5.530;2023-09-07T02:23:58;6.63;;;6.03;;
11066;SDS011;29763;50.904;5.530;2023-09-07T02:26:25;6.28;;;5.70;;
11066;SDS011;29763;50.904;5.530;2023-09-07T02:28:50;7.10;;;5.90;;
11066;SDS011;29763;50.904;5.530;2023-09-07T02:31:22;6.35;;;5.78;;
11066;SDS011;29763;50.904;5.530;2023-09-07T02:33:48;6.55;;;6.00;;
11066;SDS011;29763;50.904;5.530;2023-09-07T02:36:14;6.85;;;5.53;;
11066;SDS011;29763;50.904;5.530;2023-09-07T02:38:40;7.78;;;5.78;;
11066;SDS011;29763;50.904;5.530;2023-09-07T02:41:08;6.22;;;5.53;;
11066;SDS011;29763;50.904;5.530;2023-09-07T02:43:34;6.00;;;5.47;;
11066;SDS011;29763;50.904;5.530;2023-09-07T02:45:59;6.28;;;5.78;;
11066;SDS011;29763;50.904;5.530;2023-09-07T02:48:27;5.95;;;5.45;;
11066;SDS011;29763;50.904;5.530;2023-09-07T02:50:54;6.95;;;5.43;;
11066;SDS011;29763;50.904;5.530;2023-09-07T02:53:19;6.10;;;5.35;;
11066;SDS011;29763;50.904;5.530;2023-09-07T02:55:45;6.38;;;5.65;;
11066;SDS011;29763;50.904;5.530;2023-09-07T02:58:11;6.10;;;5.50;;
11066;SDS011;29763;50.904;5.530;2023-09-07T03:00:41;6.57;;;5.88;;
11066;SDS011;29763;50.904;5.530;2023-09-07T03:03:12;7.05;;;6.35;;
11066;SDS011;29763;50.904;5.530;2023-09-07T03:05:40;7.63;;;5.97;;
11066;SDS011;29763;50.904;5.530;2023-09-07T03:08:08;7.00;;;6.20;;
11066;SDS011;29763;50.904;5.530;2023-09-07T03:10:37;7.07;;;6.38;;
11066;SDS011;29763;50.904;5.530;2023-09-07T03:13:05;6.78;;;6.07;;
11066;SDS011;29763;50.904;5.530;2023-09-07T03:15:31;7.95;;;7.15;;
11066;SDS011;29763;50.904;5.530;2023-09-07T03:18:03;8.05;;;6.82;;
11066;SDS011;29763;50.904;5.530;2023-09-07T03:20:35;7.43;;;6.68;;
11066;SDS011;29763;50.904;5.530;2023-09-07T03:23:03;7.20;;;6.50;;
11066;SDS011;29763;50.904;5.530;2023-09-07T03:25:31;6.75;;;6.10;;
11066;SDS011;29763;50.904;5.530;2023-09-07T03:28:01;6.50;;;6.00;;
11066;SDS011;29763;50.904;5.530;2023-09-07T03:30:30;7.30;;;6.60;;
11066;SDS011;29763;50.904;5.530;2023-09-07T03:32:56;6.97;;;6.22;;
11066;SDS011;29763;50.904;5.530;2023-09-07T03:35:23;7.22;;;6.18;;
11066;SDS011;29763;50.904;5.530;2023-09-07T03:37:50;7.60;;;6.75;;
11066;SDS011;29763;50.904;5.530;2023-09-07T03:40:16;7.53;;;6.82;;
11066;SDS011;29763;50.904;5.530;2023-09-07T03:42:42;7.43;;;6.53;;
11066;SDS011;29763;50.904;5.530;2023-09-07T03:45:14;7.15;;;6.28;;
11066;SDS011;29763;50.904;5.530;2023-09-07T03:47:40;7.32;;;6.63;;
11066;SDS011;29763;50.904;5.530;2023-09-07T03:50:06;7.00;;;6.30;;
11066;SDS011;29763;50.904;5.530;2023-09-07T03:52:33;7.38;;;6.68;;
11066;SDS011;29763;50.904;5.530;2023-09-07T03:54:59;8.45;;;6.95;;
11066;SDS011;29763;50.904;5.530;2023-09-07T03:57:25;8.30;;;6.65;;
11066;SDS011;29763;50.904;5.530;2023-09-07T03:59:52;8.15;;;6.35;;
11066;SDS011;29763;50.904;5.530;2023-09-07T04:02:21;12.50;;;7.05;;
11066;SDS011;29763;50.904;5.530;2023-09-07T04:04:49;8.23;;;6.82;;
11066;SDS011;29763;50.904;5.530;2023-09-07T04:07:17;8.80;;;6.35;;
11066;SDS011;29763;50.904;5.530;2023-09-07T04:09:44;7.22;;;6.18;;
11066;SDS011;29763;50.904;5.530;2023-09-07T04:12:10;7.30;;;6.20;;
11066;SDS011;29763;50.904;5.530;2023-09-07T04:14:36;9.55;;;6.30;;
11066;SDS011;29763;50.904;5.530;2023-09-07T04:17:05;6.78;;;6.07;;
11066;SDS011;29763;50.904;5.530;2023-09-07T04:19:34;7.53;;;6.38;;
11066;SDS011;29763;50.904;5.530;2023-09-07T04:22:00;7.60;;;6.55;;
11066;SDS011;29763;50.904;5.530;2023-09-07T04:24:32;12.75;;;6.95;;
11066;SDS011;29763;50.904;5.530;2023-09-07T04:27:00;14.35;;;7.25;;
11066;SDS011;29763;50.904;5.530;2023-09-07T04:29:27;17.60;;;8.65;;
11066;SDS011;29763;50.904;5.530;2023-09-07T04:31:53;16.95;;;8.05;;
11066;SDS011;29763;50.904;5.530;2023-09-07T04:34:21;10.90;;;7.50;;
11066;SDS011;29763;50.904;5.530;2023-09-07T04:36:47;13.27;;;8.02;;
11066;SDS011;29763;50.904;5.530;2023-09-07T04:39:13;11.85;;;7.78;;
11066;SDS011;29763;50.904;5.530;2023-09-07T04:41:44;15.43;;;8.27;;
11066;SDS011;29763;50.904;5.530;2023-09-07T04:44:11;12.93;;;7.95;;
11066;SDS011;29763;50.904;5.530;2023-09-07T04:46:40;13.65;;;7.30;;
11066;SDS011;29763;50.904;5.530;2023-09-07T04:49:06;13.20;;;8.05;;
11066;SDS011;29763;50.904;5.530;2023-09-07T04:51:33;21.42;;;9.10;;
11066;SDS011;29763;50.904;5.530;2023-09-07T04:54:05;26.25;;;10.57;;
11066;SDS011;29763;50.904;5.530;2023-09-07T04:56:31;17.40;;;9.63;;
11066;SDS011;29763;50.904;5.530;2023-09-07T04:58:57;17.08;;;9.25;;
11066;SDS011;29763;50.904;5.530;2023-09-07T05:01:24;20.85;;;9.30;;
11066;SDS011;29763;50.904;5.530;2023-09-07T05:03:51;21.80;;;10.43;;
11066;SDS011;29763;50.904;5.530;2023-09-07T05:06:26;23.23;;;11.00;;
11066;SDS011;29763;50.904;5.530;2023-09-07T05:08:55;22.90;;;9.43;;
11066;SDS011;29763;50.904;5.530;2023-09-07T05:11:21;17.00;;;10.00;;
11066;SDS011;29763;50.904;5.530;2023-09-07T05:13:48;20.17;;;10.43;;
11066;SDS011;29763;50.904;5.530;2023-09-07T05:16:13;16.63;;;9.82;;
11066;SDS011;29763;50.904;5.530;2023-09-07T05:18:42;18.13;;;10.10;;
11066;SDS011;29763;50.904;5.530;2023-09-07T05:21:11;17.00;;;8.55;;
11066;SDS011;29763;50.904;5.530;2023-09-07T05:23:40;17.50;;;9.82;;
11066;SDS011;29763;50.904;5.530;2023-09-07T05:26:06;17.55;;;9.95;;
11066;SDS011;29763;50.904;5.530;2023-09-07T05:28:32;10.88;;;7.82;;
11066;SDS011;29763;50.904;5.530;2023-09-07T05:31:06;9.52;;;7.07;;
11066;SDS011;29763;50.904;5.530;2023-09-07T05:33:32;12.88;;;7.60;;
11066;SDS011;29763;50.904;5.530;2023-09-07T05:38:44;19.45;;;10.77;;
11066;SDS011;29763;50.904;5.530;2023-09-07T05:41:10;23.02;;;11.13;;
11066;SDS011;29763;50.904;5.530;2023-09-07T05:43:36;16.88;;;10.48;;
11066;SDS011;29763;50.904;5.530;2023-09-07T05:46:02;14.25;;;9.30;;
11066;SDS011;29763;50.904;5.530;2023-09-07T05:48:27;19.67;;;10.18;;
11066;SDS011;29763;50.904;5.530;2023-09-07T05:50:54;13.10;;;10.55;;
11066;SDS011;29763;50.904;5.530;2023-09-07T05:53:20;16.65;;;11.38;;
11066;SDS011;29763;50.904;5.530;2023-09-07T05:55:46;18.08;;;12.13;;
11066;SDS011;29763;50.904;5.530;2023-09-07T05:58:12;10.85;;;8.80;;
11066;SDS011;29763;50.904;5.530;2023-09-07T06:00:38;10.35;;;8.10;;
11066;SDS011;29763;50.904;5.530;2023-09-07T06:03:06;8.80;;;7.90;;
11066;SDS011;29763;50.904;5.530;2023-09-07T06:05:36;11.40;;;9.18;;
11066;SDS011;29763;50.904;5.530;2023-09-07T06:08:05;69.22;;;19.33;;
11066;SDS011;29763;50.904;5.530;2023-09-07T06:10:31;22.60;;;10.90;;
11066;SDS011;29763;50.904;5.530;2023-09-07T06:12:59;13.63;;;8.90;;
11066;SDS011;29763;50.904;5.530;2023-09-07T06:15:25;23.55;;;11.48;;
11066;SDS011;29763;50.904;5.530;2023-09-07T06:17:52;9.32;;;7.85;;
11066;SDS011;29763;50.904;5.530;2023-09-07T06:20:19;53.58;;;16.35;;
11066;SDS011;29763;50.904;5.530;2023-09-07T06:22:45;86.57;;;19.92;;
11066;SDS011;29763;50.904;5.530;2023-09-07T06:25:13;215.07;;;31.77;;
11066;SDS011;29763;50.904;5.530;2023-09-07T06:27:39;206.30;;;34.22;;
11066;SDS011;29763;50.904;5.530;2023-09-07T06:30:05;51.67;;;14.75;;
11066;SDS011;29763;50.904;5.530;2023-09-07T06:32:35;25.08;;;10.95;;
11066;SDS011;29763;50.904;5.530;2023-09-07T06:35:01;12.30;;;8.52;;
11066;SDS011;29763;50.904;5.530;2023-09-07T06:37:27;12.13;;;8.00;;
11066;SDS011;29763;50.904;5.530;2023-09-07T06:39:54;127.65;;;13.07;;
11066;SDS011;29763;50.904;5.530;2023-09-07T06:42:20;11.75;;;7.45;;
11066;SDS011;29763;50.904;5.530;2023-09-07T06:44:46;10.18;;;7.35;;
11066;SDS011;29763;50.904;5.530;2023-09-07T06:47:13;7.63;;;6.82;;
11066;SDS011;29763;50.904;5.530;2023-09-07T06:49:39;8.45;;;7.22;;
11066;SDS011;29763;50.904;5.530;2023-09-07T06:52:05;10.20;;;7.13;;
11066;SDS011;29763;50.904;5.530;2023-09-07T06:54:40;7.70;;;6.63;;
11066;SDS011;29763;50.904;5.530;2023-09-07T06:57:13;6.88;;;6.18;;
11066;SDS011;29763;50.904;5.530;2023-09-07T06:59:40;7.28;;;6.22;;
11066;SDS011;29763;50.904;5.530;2023-09-07T07:02:05;7.80;;;5.88;;
11066;SDS011;29763;50.904;5.530;2023-09-07T07:04:31;8.65;;;6.55;;
11066;SDS011;29763;50.904;5.530;2023-09-07T07:06:59;6.93;;;6.22;;
11066;SDS011;29763;50.904;5.530;2023-09-07T07:09:26;9.40;;;6.20;;
11066;SDS011;29763;50.904;5.530;2023-09-07T07:11:53;6.82;;;6.13;;
11066;SDS011;29763;50.904;5.530;2023-09-07T07:14:19;6.65;;;5.93;;
11066;SDS011;29763;50.904;5.530;2023-09-07T07:16:46;6.85;;;6.22;;
11066;SDS011;29763;50.904;5.530;2023-09-07T07:19:21;6.72;;;6.13;;
11066;SDS011;29763;50.904;5.530;2023-09-07T07:21:49;7.78;;;6.30;;
11066;SDS011;29763;50.904;5.530;2023-09-07T07:27:05;7.25;;;5.88;;
11066;SDS011;29763;50.904;5.530;2023-09-07T07:29:40;6.40;;;5.75;;
11066;SDS011;29763;50.904;5.530;2023-09-07T07:32:12;6.40;;;5.80;;
11066;SDS011;29763;50.904;5.530;2023-09-07T07:34:38;5.63;;;5.22;;
11066;SDS011;29763;50.904;5.530;2023-09-07T07:37:08;7.18;;;5.35;;
11066;SDS011;29763;50.904;5.530;2023-09-07T07:39:35;7.30;;;5.78;;
11066;SDS011;29763;50.904;5.530;2023-09-07T07:42:03;6.93;;;5.70;;
11066;SDS011;29763;50.904;5.530;2023-09-07T07:44:31;5.53;;;5.03;;
11066;SDS011;29763;50.904;5.530;2023-09-07T07:46:57;6.60;;;5.10;;
11066;SDS011;29763;50.904;5.530;2023-09-07T07:49:24;5.88;;;5.15;;
11066;SDS011;29763;50.904;5.530;2023-09-07T07:51:54;7.00;;;4.95;;
11066;SDS011;29763;50.904;5.530;2023-09-07T07:54:29;5.30;;;4.80;;
11066;SDS011;29763;50.904;5.530;2023-09-07T07:56:59;5.50;;;5.00;;
11066;SDS011;29763;50.904;5.530;2023-09-07T07:59:26;7.53;;;5.03;;
11066;SDS011;29763;50.904;5.530;2023-09-07T08:01:59;5.63;;;5.03;;
11066;SDS011;29763;50.904;5.530;2023-09-07T08:04:34;5.78;;;5.25;;
11066;SDS011;29763;50.904;5.530;2023-09-07T08:07:05;5.40;;;4.90;;
11066;SDS011;29763;50.904;5.530;2023-09-07T08:09:36;5.38;;;4.88;;
11066;SDS011;29763;50.904;5.530;2023-09-07T08:12:13;5.70;;;4.78;;
11066;SDS011;29763;50.904;5.530;2023-09-07T08:14:40;5.13;;;4.70;;
11066;SDS011;29763;50.904;5.530;2023-09-07T08:17:09;5.65;;;4.93;;
11066;SDS011;29763;50.904;5.530;2023-09-07T08:19:37;5.90;;;5.15;;
11066;SDS011;29763;50.904;5.530;2023-09-07T08:22:04;5.85;;;5.25;;
11066;SDS011;29763;50.904;5.530;2023-09-07T08:24:31;5.65;;;4.72;;
11066;SDS011;29763;50.904;5.530;2023-09-07T08:26:57;5.20;;;4.80;;
11066;SDS011;29763;50.904;5.530;2023-09-07T08:29:25;5.55;;;5.05;;
11066;SDS011;29763;50.904;5.530;2023-09-07T08:31:52;5.22;;;4.70;;
11066;SDS011;29763;50.904;5.530;2023-09-07T08:34:19;5.20;;;4.70;;
11066;SDS011;29763;50.904;5.530;2023-09-07T08:36:47;6.03;;;4.80;;
11066;SDS011;29763;50.904;5.530;2023-09-07T08:39:20;5.55;;;5.05;;
11066;SDS011;29763;50.904;5.530;2023-09-07T08:41:50;5.40;;;4.80;;
11066;SDS011;29763;50.904;5.530;2023-09-07T08:44:17;7.32;;;4.65;;
11066;SDS011;29763;50.904;5.530;2023-09-07T08:46:52;4.93;;;4.43;;
11066;SDS011;29763;50.904;5.530;2023-09-07T08:49:18;4.88;;;4.43;;
11066;SDS011;29763;50.904;5.530;2023-09-07T08:51:58;6.03;;;4.72;;
11066;SDS011;29763;50.904;5.530;2023-09-07T08:54:30;5.03;;;4.53;;
11066;SDS011;29763;50.904;5.530;2023-09-07T08:57:01;5.30;;;4.90;;
11066;SDS011;29763;50.904;5.530;2023-09-07T08:59:29;5.72;;;5.05;;
11066;SDS011;29763;50.904;5.530;2023-09-07T09:02:01;5.50;;;5.00;;
11066;SDS011;29763;50.904;5.530;2023-09-07T09:04:31;5.75;;;4.65;;
11066;SDS011;29763;50.904;5.530;2023-09-07T09:06:58;6.25;;;4.32;;
11066;SDS011;29763;50.904;5.530;2023-09-07T09:09:28;5.30;;;4.72;;
11066;SDS011;29763;50.904;5.530;2023-09-07T09:12:11;6.55;;;4.45;;
11066;SDS011;29763;50.904;5.530;2023-09-07T09:14:44;4.82;;;4.35;;
11066;SDS011;29763;50.904;5.530;2023-09-07T09:17:14;6.55;;;4.43;;
11066;SDS011;29763;50.904;5.530;2023-09-07T09:19:42;5.35;;;4.25;;
11066;SDS011;29763;50.904;5.530;2023-09-07T09:22:11;5.00;;;4.47;;
11066;SDS011;29763;50.904;5.530;2023-09-07T09:24:37;6.80;;;4.45;;
11066;SDS011;29763;50.904;5.530;2023-09-07T09:27:03;4.57;;;4.18;;
11066;SDS011;29763;50.904;5.530;2023-09-07T09:29:32;5.25;;;4.30;;
11066;SDS011;29763;50.904;5.530;2023-09-07T09:32:00;6.43;;;4.60;;
11066;SDS011;29763;50.904;5.530;2023-09-07T09:34:40;6.32;;;4.30;;
11066;SDS011;29763;50.904;5.530;2023-09-07T09:37:12;4.47;;;4.10;;
11066;SDS011;29763;50.904;5.530;2023-09-07T09:39:41;5.20;;;4.30;;
11066;SDS011;29763;50.904;5.530;2023-09-07T09:42:18;4.57;;;4.18;;
11066;SDS011;29763;50.904;5.530;2023-09-07T09:44:48;5.70;;;4.32;;
11066;SDS011;29763;50.904;5.530;2023-09-07T09:47:28;5.22;;;4.20;;
11066;SDS011;29763;50.904;5.530;2023-09-07T09:49:56;5.18;;;4.00;;
11066;SDS011;29763;50.904;5.530;2023-09-07T09:52:33;4.78;;;4.38;;
11066;SDS011;29763;50.904;5.530;2023-09-07T09:55:01;4.40;;;4.00;;
11066;SDS011;29763;50.904;5.530;2023-09-07T09:57:30;5.07;;;4.07;;
11066;SDS011;29763;50.904;5.530;2023-09-07T09:59:58;5.75;;;4.22;;
11066;SDS011;29763;50.904;5.530;2023-09-07T10:02:26;4.53;;;4.13;;
11066;SDS011;29763;50.904;5.530;2023-09-07T10:04:52;4.78;;;4.00;;
11066;SDS011;29763;50.904;5.530;2023-09-07T10:07:19;4.57;;;4.18;;
11066;SDS011;29763;50.904;5.530;2023-09-07T10:09:55;4.80;;;4.30;;
11066;SDS011;29763;50.904;5.530;2023-09-07T10:12:26;4.68;;;3.80;;
11066;SDS011;29763;50.904;5.530;2023-09-07T10:14:52;4.25;;;3.85;;
11066;SDS011;29763;50.904;5.530;2023-09-07T10:17:27;6.53;;;4.30;;
11066;SDS011;29763;50.904;5.530;2023-09-07T10:20:09;4.38;;;4.00;;
11066;SDS011;29763;50.904;5.530;2023-09-07T10:22:35;4.10;;;3.65;;
11066;SDS011;29763;50.904;5.530;2023-09-07T10:25:02;4.13;;;3.60;;
11066;SDS011;29763;50.904;5.530;2023-09-07T10:27:37;3.80;;;3.50;;
11066;SDS011;29763;50.904;5.530;2023-09-07T10:30:10;4.57;;;4.13;;
11066;SDS011;29763;50.904;5.530;2023-09-07T10:32:42;3.75;;;3.45;;
11066;SDS011;29763;50.904;5.530;2023-09-07T10:35:15;4.90;;;3.85;;
11066;SDS011;29763;50.904;5.530;2023-09-07T10:37:50;4.90;;;3.78;;
11066;SDS011;29763;50.904;5.530;2023-09-07T10:40:21;3.85;;;3.55;;
11066;SDS011;29763;50.904;5.530;2023-09-07T10:42:50;3.83;;;3.53;;
11066;SDS011;29763;50.904;5.530;2023-09-07T10:45:30;3.85;;;3.58;;
11066;SDS011;29763;50.904;5.530;2023-09-07T10:48:12;4.20;;;3.90;;
11066;SDS011;29763;50.904;5.530;2023-09-07T10:50:44;3.90;;;3.50;;
11066;SDS011;29763;50.904;5.530;2023-09-07T10:53:12;4.00;;;3.60;;
11066;SDS011;29763;50.904;5.530;2023-09-07T10:55:40;5.25;;;4.38;;
11066;SDS011;29763;50.904;5.530;2023-09-07T10:58:10;3.78;;;3.47;;
11066;SDS011;29763;50.904;5.530;2023-09-07T11:00:37;3.63;;;3.33;;
11066;SDS011;29763;50.904;5.530;2023-09-07T11:03:08;4.40;;;4.10;;
11066;SDS011;29763;50.904;5.530;2023-09-07T11:05:40;3.92;;;3.63;;
11066;SDS011;29763;50.904;5.530;2023-09-07T11:08:08;3.60;;;3.40;;
11066;SDS011;29763;50.904;5.530;2023-09-07T11:10:34;6.78;;;4.38;;
11066;SDS011;29763;50.904;5.530;2023-09-07T11:13:07;4.30;;;3.90;;
11066;SDS011;29763;50.904;5.530;2023-09-07T11:15:43;4.15;;;3.75;;
11066;SDS011;29763;50.904;5.530;2023-09-07T11:18:21;4.00;;;3.60;;
11066;SDS011;29763;50.904;5.530;2023-09-07T11:20:48;5.32;;;4.00;;
11066;SDS011;29763;50.904;5.530;2023-09-07T11:23:23;6.60;;;3.95;;
11066;SDS011;29763;50.904;5.530;2023-09-07T11:26:11;4.07;;;3.60;;
11066;SDS011;29763;50.904;5.530;2023-09-07T11:28:41;5.10;;;3.60;;
11066;SDS011;29763;50.904;5.530;2023-09-07T11:31:10;4.43;;;3.97;;
11066;SDS011;29763;50.904;5.530;2023-09-07T11:33:36;4.18;;;3.78;;
11066;SDS011;29763;50.904;5.530;2023-09-07T11:36:03;4.50;;;3.72;;
11066;SDS011;29763;50.904;5.530;2023-09-07T11:38:37;4.50;;;3.80;;
11066;SDS011;29763;50.904;5.530;2023-09-07T11:41:07;4.45;;;3.72;;
11066;SDS011;29763;50.904;5.530;2023-09-07T11:43:40;4.65;;;4.20;;
11066;SDS011;29763;50.904;5.530;2023-09-07T11:46:07;4.38;;;3.85;;
11066;SDS011;29763;50.904;5.530;2023-09-07T11:48:36;4.75;;;4.22;;
11066;SDS011;29763;50.904;5.530;2023-09-07T11:51:21;4.10;;;3.70;;
11066;SDS011;29763;50.904;5.530;2023-09-07T11:53:53;4.35;;;3.90;;
11066;SDS011;29763;50.904;5.530;2023-09-07T11:56:19;4.30;;;3.83;;
11066;SDS011;29763;50.904;5.530;2023-09-07T11:58:48;4.57;;;3.83;;
11066;SDS011;29763;50.904;5.530;2023-09-07T12:01:15;4.78;;;3.80;;
11066;SDS011;29763;50.904;5.530;2023-09-07T12:03:46;4.65;;;4.25;;
11066;SDS011;29763;50.904;5.530;2023-09-07T12:06:16;4.10;;;3.80;;
11066;SDS011;29763;50.904;5.530;2023-09-07T12:08:42;4.95;;;3.90;;
11066;SDS011;29763;50.904;5.530;2023-09-07T12:11:42;4.75;;;4.22;;
11066;SDS011;29763;50.904;5.530;2023-09-07T12:14:11;4.75;;;4.30;;
11066;SDS011;29763;50.904;5.530;2023-09-07T12:16:38;5.53;;;4.20;;
11066;SDS011;29763;50.904;5.530;2023-09-07T12:19:12;4.70;;;4.28;;
11066;SDS011;29763;50.904;5.530;2023-09-07T12:21:38;4.57;;;4.28;;
11066;SDS011;29763;50.904;5.530;2023-09-07T12:24:07;4.57;;;4.18;;
11066;SDS011;29763;50.904;5.530;2023-09-07T12:26:33;5.03;;;4.53;;
11066;SDS011;29763;50.904;5.530;2023-09-07T12:28:59;4.90;;;4.50;;
11066;SDS011;29763;50.904;5.530;2023-09-07T12:31:29;5.25;;;4.28;;
11066;SDS011;29763;50.904;5.530;2023-09-07T12:33:58;5.75;;;4.43;;
11066;SDS011;29763;50.904;5.530;2023-09-07T12:36:24;4.60;;;4.30;;
11066;SDS011;29763;50.904;5.530;2023-09-07T12:38:54;6.28;;;4.20;;
11066;SDS011;29763;50.904;5.530;2023-09-07T12:41:21;6.00;;;4.40;;
11066;SDS011;29763;50.904;5.530;2023-09-07T12:43:49;4.78;;;4.15;;
11066;SDS011;29763;50.904;5.530;2023-09-07T12:46:15;4.82;;;4.35;;
11066;SDS011;29763;50.904;5.530;2023-09-07T12:48:42;5.60;;;4.85;;
11066;SDS011;29763;50.904;5.530;2023-09-07T12:51:09;6.10;;;4.30;;
11066;SDS011;29763;50.904;5.530;2023-09-07T12:53:37;5.13;;;4.72;;
11066;SDS011;29763;50.904;5.530;2023-09-07T12:56:05;5.05;;;4.55;;
11066;SDS011;29763;50.904;5.530;2023-09-07T12:58:35;4.90;;;4.47;;
11066;SDS011;29763;50.904;5.530;2023-09-07T13:01:04;5.00;;;4.45;;
11066;SDS011;29763;50.904;5.530;2023-09-07T13:03:30;7.70;;;4.40;;
11066;SDS011;29763;50.904;5.530;2023-09-07T13:06:00;5.43;;;4.47;;
11066;SDS011;29763;50.904;5.530;2023-09-07T13:08:31;5.88;;;4.40;;
11066;SDS011;29763;50.904;5.530;2023-09-07T13:10:59;4.88;;;4.47;;
11066;SDS011;29763;50.904;5.530;2023-09-07T13:13:25;5.47;;;4.60;;
11066;SDS011;29763;50.904;5.530;2023-09-07T13:15:57;5.78;;;4.20;;
11066;SDS011;29763;50.904;5.530;2023-09-07T13:18:24;5.97;;;4.97;;
11066;SDS011;29763;50.904;5.530;2023-09-07T13:20:51;4.80;;;4.38;;
11066;SDS011;29763;50.904;5.530;2023-09-07T13:23:20;5.50;;;4.35;;
11066;SDS011;29763;50.904;5.530;2023-09-07T13:25:47;5.60;;;4.60;;
11066;SDS011;29763;50.904;5.530;2023-09-07T13:28:13;5.13;;;4.70;;
11066;SDS011;29763;50.904;5.530;2023-09-07T13:30:39;4.90;;;4.50;;
11066;SDS011;29763;50.904;5.530;2023-09-07T13:33:06;5.90;;;4.53;;
11066;SDS011;29763;50.904;5.530;2023-09-07T13:35:35;5.57;;;4.85;;
11066;SDS011;29763;50.904;5.530;2023-09-07T13:38:01;5.28;;;4.55;;
11066;SDS011;29763;50.904;5.530;2023-09-07T13:40:27;6.10;;;4.55;;
11066;SDS011;29763;50.904;5.530;2023-09-07T13:42:54;4.85;;;4.28;;
11066;SDS011;29763;50.904;5.530;2023-09-07T13:45:25;6.55;;;4.50;;
11066;SDS011;29763;50.904;5.530;2023-09-07T13:47:51;5.10;;;4.70;;
11066;SDS011;29763;50.904;5.530;2023-09-07T13:50:18;4.78;;;4.35;;
11066;SDS011;29763;50.904;5.530;2023-09-07T13:52:44;5.03;;;4.40;;
11066;SDS011;29763;50.904;5.530;2023-09-07T13:55:22;4.97;;;4.35;;
11066;SDS011;29763;50.904;5.530;2023-09-07T13:57:59;4.75;;;4.22;;
11066;SDS011;29763;50.904;5.530;2023-09-07T14:00:25;4.53;;;4.20;;
11066;SDS011;29763;50.904;5.530;2023-09-07T14:02:52;5.57;;;4.38;;
11066;SDS011;29763;50.904;5.530;2023-09-07T14:05:28;4.85;;;4.35;;
11066;SDS011;29763;50.904;5.530;2023-09-07T14:07:56;5.40;;;4.40;;
11066;SDS011;29763;50.904;5.530;2023-09-07T14:10:24;4.78;;;4.38;;
11066;SDS011;29763;50.904;5.530;2023-09-07T14:12:59;5.40;;;4.40;;
11066;SDS011;29763;50.904;5.530;2023-09-07T14:15:27;4.80;;;4.40;;
11066;SDS011;29763;50.904;5.530;2023-09-07T14:17:53;6.07;;;4.30;;
11066;SDS011;29763;50.904;5.530;2023-09-07T14:20:19;6.75;;;4.40;;
11066;SDS011;29763;50.904;5.530;2023-09-07T14:22:49;4.40;;;4.00;;
11066;SDS011;29763;50.904;5.530;2023-09-07T14:25:15;4.45;;;4.05;;
11066;SDS011;29763;50.904;5.530;2023-09-07T14:27:49;4.80;;;4.40;;
11066;SDS011;29763;50.904;5.530;2023-09-07T14:30:15;7.22;;;4.40;;
11066;SDS011;29763;50.904;5.530;2023-09-07T14:32:44;5.88;;;4.28;;
11066;SDS011;29763;50.904;5.530;2023-09-07T14:35:13;4.45;;;4.07;;
11066;SDS011;29763;50.904;5.530;2023-09-07T14:37:44;4.95;;;4.45;;
11066;SDS011;29763;50.904;5.530;2023-09-07T14:40:21;4.82;;;4.32;;
11066;SDS011;29763;50.904;5.530;2023-09-07T14:43:07;5.68;;;4.22;;
11066;SDS011;29763;50.904;5.530;2023-09-07T14:45:36;5.18;;;4.45;;
11066;SDS011;29763;50.904;5.530;2023-09-07T14:48:03;4.57;;;4.18;;
11066;SDS011;29763;50.904;5.530;2023-09-07T14:50:41;5.15;;;4.15;;
11066;SDS011;29763;50.904;5.530;2023-09-07T14:53:10;5.20;;;4.22;;
11066;SDS011;29763;50.904;5.530;2023-09-07T14:55:36;5.00;;;4.50;;
11066;SDS011;29763;50.904;5.530;2023-09-07T14:58:06;4.40;;;4.00;;
11066;SDS011;29763;50.904;5.530;2023-09-07T15:00:41;4.75;;;4.22;;